Time;durP1;ratioP1;P1;durP2;ratioP2;P2;SDS_P1;SDS_P2;PMS_P1;PMS_P2;Temp;Humidity;BMP_temperature;BMP_pressure;BME280_temperature;BME280_humidity;BME280_pressure;Samples;Min_cycle;Max_cycle;Signal;HPM_P1;HPM_P2
2022/08/03 00:01:52;;;;;;;2.00;1.83;;;31.20;58.60;;;;;;5080699;28;20485;-65
2022/08/03 00:04:24;;;;;;;4.20;1.70;;;31.10;58.50;;;;;;5081263;28;20565;-64
2022/08/03 00:07:03;;;;;;;2.10;1.90;;;30.80;58.90;;;;;;5069654;28;20481;-66
2022/08/03 00:09:34;;;;;;;2.70;2.50;;;30.80;58.90;;;;;;5073349;28;20469;-65
2022/08/03 00:12:05;;;;;;;2.77;2.57;;;30.70;58.30;;;;;;5066125;28;20536;-65
2022/08/03 00:14:36;;;;;;;2.60;2.40;;;30.80;59.60;;;;;;5060076;28;20470;-65
2022/08/03 00:17:06;;;;;;;1.83;1.73;;;30.90;58.20;;;;;;5058986;28;20541;-65
2022/08/03 00:19:39;;;;;;;2.03;1.93;;;30.80;58.40;;;;;;5058483;28;20564;-65
2022/08/03 00:22:09;;;;;;;2.10;1.90;;;30.80;57.70;;;;;;5060961;28;20456;-65
2022/08/03 00:24:40;;;;;;;1.83;1.73;;;30.80;58.50;;;;;;5065097;28;20455;-65
2022/08/03 00:27:11;;;;;;;2.27;2.07;;;30.80;57.60;;;;;;5058870;28;20467;-65
2022/08/03 00:29:45;;;;;;;2.40;2.20;;;30.80;59.40;;;;;;5061815;28;20450;-65
2022/08/03 00:32:29;;;;;;;2.33;2.20;;;30.80;58.90;;;;;;5057359;28;20494;-64
2022/08/03 00:35:03;;;;;;;2.27;2.07;;;30.80;60.30;;;;;;5063022;28;20459;-65
2022/08/03 00:37:38;;;;;;;2.40;2.20;;;30.90;59.10;;;;;;5059081;28;20466;-65
2022/08/03 00:40:12;;;;;;;1.70;1.60;;;30.80;58.40;;;;;;5057137;28;20976;-66
2022/08/03 00:42:51;;;;;;;2.73;2.53;;;30.70;57.70;;;;;;5055678;28;20476;-67
2022/08/03 00:45:24;;;;;;;2.20;2.10;;;30.70;58.80;;;;;;5065607;28;20460;-66
2022/08/03 00:47:56;;;;;;;2.57;2.40;;;30.60;58.00;;;;;;5069161;28;20802;-63
2022/08/03 00:50:31;;;;;;;2.07;1.90;;;30.70;59.20;;;;;;5067324;28;20446;-66
2022/08/03 00:53:02;;;;;;;2.03;1.93;;;30.60;59.70;;;;;;5072142;28;20496;-65
2022/08/03 00:55:33;;;;;;;1.93;1.83;;;30.50;58.60;;;;;;5062279;28;20466;-65
2022/08/03 00:58:05;;;;;;;2.67;2.47;;;30.40;58.40;;;;;;5076752;28;20497;-65
2022/08/03 01:00:39;;;;;;;2.50;2.30;;;30.40;58.90;;;;;;5072763;28;20472;-65
2022/08/03 01:03:11;;;;;;;2.60;2.40;;;30.50;59.60;;;;;;5065766;28;20456;-68
2022/08/03 01:05:53;;;;;;;2.67;2.27;;;30.50;59.90;;;;;;5063677;28;20459;-66
2022/08/03 01:08:35;;;;;;;1.90;1.70;;;30.40;60.10;;;;;;5078570;28;20541;-67
2022/08/03 01:11:11;;;;;;;2.97;2.40;;;30.20;60.00;;;;;;5077227;28;20772;-66
2022/08/03 01:13:54;;;;;;;2.17;2.07;;;30.20;61.80;;;;;;5067448;28;20519;-67
2022/08/03 01:16:53;;;;;;;2.07;1.93;;;30.20;60.90;;;;;;5062434;28;20517;-68
2022/08/03 01:19:41;;;;;;;2.60;2.40;;;30.10;62.20;;;;;;5061712;28;20463;-67
2022/08/03 01:22:32;;;;;;;2.40;2.20;;;30.10;62.20;;;;;;5074694;28;20467;-67
2022/08/03 01:25:09;;;;;;;2.40;2.17;;;30.20;62.80;;;;;;5061207;28;20467;-66
2022/08/03 01:27:52;;;;;;;2.37;2.17;;;30.10;62.70;;;;;;5064662;28;20455;-66
2022/08/03 01:30:28;;;;;;;3.30;2.20;;;30.10;63.80;;;;;;5063529;28;20502;-66
2022/08/03 01:33:04;;;;;;;2.23;2.03;;;30.10;64.30;;;;;;5060670;28;20491;-67
2022/08/03 01:35:40;;;;;;;2.43;1.87;;;30.10;65.30;;;;;;5061721;28;20538;-68
2022/08/03 01:38:14;;;;;;;2.50;2.30;;;30.10;64.80;;;;;;5076633;28;20568;-66
2022/08/03 01:40:47;;;;;;;2.37;2.17;;;29.80;65.50;;;;;;5064526;28;20475;-66
2022/08/03 01:43:20;;;;;;;2.00;1.90;;;29.80;66.40;;;;;;5063834;28;20486;-66
2022/08/03 01:46:13;;;;;;;2.13;1.93;;;29.80;66.00;;;;;;5062612;28;20518;-67
2022/08/03 01:48:45;;;;;;;2.20;2.10;;;29.70;67.50;;;;;;5075039;28;20473;-65
2022/08/03 01:51:19;;;;;;;2.70;2.50;;;29.60;67.60;;;;;;5062390;28;20456;-67
2022/08/03 01:53:53;;;;;;;3.37;2.10;;;29.50;68.00;;;;;;5068084;28;20499;-68
2022/08/03 01:56:26;;;;;;;1.80;1.70;;;29.30;68.70;;;;;;5062311;28;20459;-68
2022/08/03 01:58:59;;;;;;;2.10;1.80;;;29.30;69.30;;;;;;5063837;28;20594;-68
2022/08/03 02:01:34;;;;;;;2.10;1.90;;;29.20;68.50;;;;;;5063055;28;20477;-68
2022/08/03 02:04:26;;;;;;;2.00;1.90;;;29.30;68.10;;;;;;5049671;28;20438;-69
2022/08/03 02:06:58;;;;;;;2.20;2.00;;;29.20;70.00;;;;;;5061495;28;20514;-67
2022/08/03 02:09:32;;;;;;;3.07;2.00;;;29.10;70.30;;;;;;5070250;28;20464;-66
2022/08/03 02:12:04;;;;;;;2.10;2.00;;;29.00;70.30;;;;;;5071192;28;20455;-66
2022/08/03 02:14:35;;;;;;;3.27;2.20;;;28.90;70.40;;;;;;5069369;28;20996;-66
2022/08/03 02:17:09;;;;;;;2.40;2.20;;;28.80;70.60;;;;;;5063805;28;20468;-66
2022/08/03 02:19:41;;;;;;;2.97;2.13;;;28.70;71.10;;;;;;5062920;28;20478;-67
2022/08/03 02:22:14;;;;;;;2.50;2.30;;;28.80;71.00;;;;;;5062149;28;20447;-68
2022/08/03 02:24:46;;;;;;;2.17;1.97;;;28.70;71.90;;;;;;5070226;28;20494;-69
2022/08/03 02:27:23;;;;;;;2.03;1.87;;;28.60;72.50;;;;;;5063610;28;20463;-67
2022/08/03 02:29:56;;;;;;;2.33;2.13;;;28.60;72.60;;;;;;5061627;28;20467;-66
2022/08/03 02:32:32;;;;;;;2.63;2.43;;;28.50;72.30;;;;;;5056687;28;20470;-65
2022/08/03 02:35:05;;;;;;;3.33;1.90;;;28.40;72.00;;;;;;5058686;28;21582;-67
2022/08/03 02:37:42;;;;;;;2.47;2.27;;;28.40;72.50;;;;;;5062466;28;21306;-66
2022/08/03 02:40:21;;;;;;;1.97;1.87;;;28.30;72.50;;;;;;5052334;28;20457;-66
2022/08/03 02:42:56;;;;;;;3.33;2.50;;;28.20;72.20;;;;;;5068372;28;20460;-67
2022/08/03 02:45:29;;;;;;;2.50;2.13;;;28.10;73.30;;;;;;5059444;28;20464;-66
2022/08/03 02:48:05;;;;;;;3.30;3.00;;;27.90;74.10;;;;;;5068506;28;20467;-66
2022/08/03 02:50:37;;;;;;;2.50;2.30;;;27.80;73.90;;;;;;5062536;28;20498;-66
2022/08/03 02:53:10;;;;;;;2.00;1.80;;;27.70;74.70;;;;;;5063332;28;20571;-66
2022/08/03 02:55:42;;;;;;;2.40;2.03;;;27.50;75.30;;;;;;5064226;28;20490;-66
2022/08/03 02:58:18;;;;;;;2.30;2.10;;;27.40;75.70;;;;;;5064294;28;20495;-66
2022/08/03 03:00:50;;;;;;;2.47;2.27;;;27.30;76.80;;;;;;5078381;28;20453;-65
2022/08/03 03:03:24;;;;;;;3.23;2.93;;;27.20;76.70;;;;;;5063232;28;20471;-65
2022/08/03 03:05:58;;;;;;;2.40;2.20;;;27.10;78.30;;;;;;5061535;28;20463;-66
2022/08/03 03:08:35;;;;;;;2.47;2.27;;;27.00;77.70;;;;;;5062505;28;20463;-66
2022/08/03 03:11:10;;;;;;;2.10;1.93;;;26.90;78.10;;;;;;5046571;28;20454;-65
2022/08/03 03:13:42;;;;;;;2.47;1.90;;;26.80;78.30;;;;;;5062305;28;20486;-65
2022/08/03 03:16:15;;;;;;;2.13;1.93;;;26.70;79.30;;;;;;5062539;28;20447;-67
2022/08/03 03:18:48;;;;;;;3.70;2.63;;;26.70;79.30;;;;;;5071112;28;20790;-68
2022/08/03 03:21:21;;;;;;;3.10;2.43;;;26.50;80.50;;;;;;5060889;28;20458;-65
2022/08/03 03:23:53;;;;;;;2.53;2.30;;;26.40;81.20;;;;;;5062395;28;20442;-65
2022/08/03 03:26:24;;;;;;;2.40;2.20;;;26.30;81.50;;;;;;5059253;28;20941;-66
2022/08/03 03:28:55;;;;;;;2.70;2.13;;;26.30;82.00;;;;;;5046392;28;20450;-64
2022/08/03 03:31:26;;;;;;;2.83;2.63;;;26.20;81.80;;;;;;5054573;28;20469;-65
2022/08/03 03:33:59;;;;;;;3.10;2.83;;;26.30;81.60;;;;;;5063417;28;20510;-65
2022/08/03 03:36:30;;;;;;;2.60;2.40;;;26.30;81.60;;;;;;5060011;28;20545;-66
2022/08/03 03:39:01;;;;;;;3.10;2.80;;;26.20;82.40;;;;;;5060786;28;20469;-67
2022/08/03 03:41:45;;;;;;;2.90;2.47;;;26.20;82.10;;;;;;5060254;28;20529;-65
2022/08/03 03:44:16;;;;;;;2.63;2.40;;;26.10;82.60;;;;;;5062166;28;20926;-65
2022/08/03 03:46:47;;;;;;;2.90;2.60;;;25.90;82.80;;;;;;5062792;28;20466;-66
2022/08/03 03:49:19;;;;;;;2.90;2.60;;;25.80;83.20;;;;;;5082089;28;20445;-65
2022/08/03 03:51:53;;;;;;;2.93;2.63;;;25.70;83.40;;;;;;5063171;28;20460;-66
2022/08/03 03:54:24;;;;;;;2.33;2.13;;;25.60;84.50;;;;;;5056421;28;20512;-65
2022/08/03 03:56:58;;;;;;;3.00;2.40;;;25.50;85.10;;;;;;5060605;28;20491;-66
2022/08/03 03:59:29;;;;;;;4.00;2.70;;;25.40;85.50;;;;;;5061288;28;20500;-65
2022/08/03 04:02:04;;;;;;;3.50;2.60;;;25.30;85.70;;;;;;5061609;28;20440;-66
2022/08/03 04:13:12;;;;;;;2.50;2.20;;;24.90;88.20;;;;;;5047821;28;20472;-66
2022/08/03 04:15:44;;;;;;;2.10;2.00;;;24.80;88.10;;;;;;5061027;28;20482;-66
2022/08/03 04:18:16;;;;;;;2.10;2.00;;;24.70;88.90;;;;;;5061606;28;20468;-67
2022/08/03 04:20:51;;;;;;;3.10;2.00;;;24.60;88.50;;;;;;5064462;28;20519;-66
2022/08/03 04:23:25;;;;;;;2.53;2.33;;;24.50;87.60;;;;;;5065455;28;20447;-67
2022/08/03 04:25:58;;;;;;;3.03;2.30;;;24.40;87.30;;;;;;5070944;28;20534;-66
2022/08/03 04:28:30;;;;;;;2.50;2.30;;;24.40;86.70;;;;;;5068799;28;20522;-66
2022/08/03 04:31:04;;;;;;;2.00;1.83;;;24.40;85.40;;;;;;5070055;28;20458;-66
2022/08/03 04:33:38;;;;;;;2.17;2.00;;;24.40;82.20;;;;;;5065242;28;20585;-66
2022/08/03 04:36:15;;;;;;;2.10;1.87;;;24.30;82.20;;;;;;5055265;28;20468;-66
2022/08/03 04:38:59;;;;;;;2.20;2.00;;;24.30;80.70;;;;;;5062547;28;20443;-67
2022/08/03 04:41:32;;;;;;;1.57;1.47;;;24.20;80.70;;;;;;5068171;28;20452;-67
2022/08/03 04:44:25;;;;;;;2.30;1.80;;;24.10;80.70;;;;;;5061846;28;20533;-67
2022/08/03 04:46:58;;;;;;;2.27;1.80;;;24.00;80.20;;;;;;5061074;28;20535;-66
2022/08/03 04:49:30;;;;;;;1.57;1.47;;;24.00;80.00;;;;;;5073865;28;20460;-67
2022/08/03 04:52:03;;;;;;;1.30;1.20;;;23.90;79.70;;;;;;5079064;28;20566;-67
2022/08/03 04:54:41;;;;;;;2.10;1.80;;;23.90;78.50;;;;;;5064205;28;20498;-67
2022/08/03 04:57:19;;;;;;;1.70;1.50;;;23.80;78.00;;;;;;5060583;28;20468;-67
2022/08/03 04:59:54;;;;;;;1.93;1.50;;;23.70;78.50;;;;;;5064936;28;21106;-68
2022/08/03 05:02:33;;;;;;;2.30;1.40;;;23.70;78.20;;;;;;5064077;28;20506;-67
2022/08/03 05:05:05;;;;;;;1.60;1.50;;;23.60;79.60;;;;;;5077929;28;20456;-68
2022/08/03 05:07:38;;;;;;;1.70;1.40;;;23.50;81.00;;;;;;5061830;28;20471;-68
2022/08/03 05:10:10;;;;;;;3.40;1.70;;;23.40;79.40;;;;;;5064605;28;20611;-68
2022/08/03 05:12:50;;;;;;;2.43;1.40;;;23.30;80.70;;;;;;5067339;28;20543;-67
2022/08/03 05:15:21;;;;;;;2.20;1.70;;;23.30;81.20;;;;;;5066058;28;20481;-66
2022/08/03 05:17:52;;;;;;;1.97;1.77;;;23.20;81.60;;;;;;5063931;28;20547;-68
2022/08/03 05:20:22;;;;;;;2.33;1.73;;;23.10;81.70;;;;;;5064243;28;20460;-67
2022/08/03 05:22:55;;;;;;;1.60;1.50;;;23.10;82.30;;;;;;5058586;28;20464;-67
2022/08/03 05:25:26;;;;;;;1.70;1.37;;;23.10;82.30;;;;;;5062027;28;20487;-67
2022/08/03 05:27:57;;;;;;;1.53;1.43;;;23.10;82.20;;;;;;5057890;28;20451;-67
2022/08/03 05:30:27;;;;;;;1.63;1.53;;;23.00;81.10;;;;;;5062942;28;20467;-68
2022/08/03 05:33:04;;;;;;;1.27;1.17;;;23.00;78.00;;;;;;5070189;28;20447;-67
2022/08/03 05:35:35;;;;;;;1.57;1.47;;;23.00;76.70;;;;;;5064375;28;20492;-67
2022/08/03 05:38:27;;;;;;;1.30;1.20;;;23.00;76.50;;;;;;5052831;28;20437;-67
2022/08/03 05:41:04;;;;;;;1.50;1.40;;;22.80;78.30;;;;;;5063708;28;20521;-67
2022/08/03 05:43:52;;;;;;;2.07;1.60;;;22.80;77.70;;;;;;5074348;28;20448;-67
2022/08/03 05:46:24;;;;;;;1.73;1.63;;;22.70;77.30;;;;;;5083702;28;20460;-67
2022/08/03 05:48:55;;;;;;;1.70;1.60;;;22.80;77.70;;;;;;5083041;28;20455;-68
2022/08/03 05:51:26;;;;;;;1.53;1.43;;;22.70;78.40;;;;;;5063096;28;20464;-67
2022/08/03 05:53:58;;;;;;;3.20;1.40;;;22.60;79.30;;;;;;5064927;28;20464;-67
2022/08/03 05:56:29;;;;;;;3.13;1.53;;;22.50;79.90;;;;;;5062195;28;20845;-67
2022/08/03 05:59:01;;;;;;;1.57;1.47;;;22.40;81.80;;;;;;5072000;28;20570;-67
2022/08/03 06:01:52;;;;;;;1.43;1.30;;;22.30;82.20;;;;;;5064494;28;20460;-67
2022/08/03 06:04:23;;;;;;;3.90;1.47;;;22.20;82.50;;;;;;5065651;28;20463;-67
2022/08/03 06:06:53;;;;;;;2.57;1.73;;;22.20;82.80;;;;;;5082580;28;20444;-67
2022/08/03 06:09:26;;;;;;;2.13;1.93;;;22.20;84.30;;;;;;5063881;28;20475;-67
2022/08/03 06:12:17;;;;;;;1.90;1.80;;;22.20;85.30;;;;;;5065278;28;20931;-66
2022/08/03 06:14:48;;;;;;;1.90;1.63;;;22.10;84.90;;;;;;5051013;28;20518;-67
2022/08/03 06:17:18;;;;;;;1.67;1.57;;;22.10;85.60;;;;;;5062679;28;20468;-67
2022/08/03 06:19:49;;;;;;;2.87;2.00;;;22.00;86.00;;;;;;5058198;28;20956;-67
2022/08/03 06:22:20;;;;;;;1.70;1.60;;;21.90;86.40;;;;;;5070564;28;20447;-68
2022/08/03 06:24:57;;;;;;;2.03;1.83;;;21.90;87.10;;;;;;5063146;28;20447;-68
2022/08/03 06:27:33;;;;;;;1.90;1.40;;;21.80;87.30;;;;;;5062011;28;20456;-68
2022/08/03 06:30:07;;;;;;;1.70;1.60;;;21.80;87.30;;;;;;5062488;28;20654;-68
2022/08/03 06:32:39;;;;;;;3.20;1.93;;;21.80;88.40;;;;;;5067718;28;20463;-68
2022/08/03 06:35:21;;;;;;;3.70;2.07;;;21.70;88.90;;;;;;5068223;28;20496;-69
2022/08/03 06:37:53;;;;;;;1.53;1.43;;;21.60;90.00;;;;;;5060715;28;20510;-68
2022/08/03 06:40:30;;;;;;;2.00;1.80;;;21.50;90.10;;;;;;5065076;28;20471;-69
2022/08/03 06:43:01;;;;;;;2.37;1.70;;;21.50;90.60;;;;;;5066319;28;20463;-68
2022/08/03 06:45:33;;;;;;;3.17;1.93;;;21.40;90.50;;;;;;5062416;28;20466;-68
2022/08/03 06:48:05;;;;;;;2.27;1.83;;;21.50;90.60;;;;;;5060332;28;20445;-68
2022/08/03 06:50:38;;;;;;;4.40;2.40;;;21.40;91.30;;;;;;5061128;28;20494;-68
2022/08/03 06:53:09;;;;;;;2.20;1.90;;;21.30;91.50;;;;;;5072277;28;20459;-68
2022/08/03 06:55:52;;;;;;;3.13;2.20;;;21.30;91.70;;;;;;5064204;28;20488;-68
2022/08/03 06:58:24;;;;;;;2.20;2.00;;;21.20;92.10;;;;;;5055269;28;20488;-68
2022/08/03 07:00:55;;;;;;;3.07;1.80;;;21.10;92.50;;;;;;5062959;28;20468;-68
2022/08/03 07:03:26;;;;;;;2.57;2.30;;;21.00;93.00;;;;;;5065335;28;20571;-68
2022/08/03 07:05:56;;;;;;;2.30;2.10;;;21.00;93.10;;;;;;5066962;28;21300;-68
2022/08/03 07:08:28;;;;;;;2.60;2.40;;;21.00;94.00;;;;;;5061419;28;20468;-68
2022/08/03 07:11:04;;;;;;;2.20;2.00;;;20.90;94.00;;;;;;5061374;28;21252;-68
2022/08/03 07:13:35;;;;;;;3.27;1.73;;;20.90;94.40;;;;;;5068050;28;20761;-68
2022/08/03 07:16:06;;;;;;;2.47;2.27;;;20.90;94.80;;;;;;5069661;28;21069;-68
2022/08/03 07:18:39;;;;;;;2.70;2.50;;;20.80;94.80;;;;;;5081650;28;20552;-68
2022/08/03 07:21:11;;;;;;;2.13;1.93;;;20.70;95.50;;;;;;5067438;28;20464;-67
2022/08/03 07:23:42;;;;;;;2.73;2.00;;;20.60;96.00;;;;;;5064436;28;20469;-68
2022/08/03 07:26:14;;;;;;;3.20;2.13;;;20.60;96.20;;;;;;5061012;28;20895;-68
2022/08/03 07:28:45;;;;;;;6.50;2.67;;;20.60;96.70;;;;;;5061558;28;20449;-68
2022/08/03 07:31:16;;;;;;;3.10;2.37;;;20.50;97.30;;;;;;5061132;28;20879;-68
2022/08/03 07:33:46;;;;;;;3.30;2.57;;;20.50;97.20;;;;;;5070554;28;20442;-68
2022/08/03 07:36:17;;;;;;;2.57;1.90;;;20.40;97.50;;;;;;5055869;28;20805;-68
2022/08/03 07:38:48;;;;;;;4.13;2.20;;;20.40;98.20;;;;;;5067076;28;20919;-68
2022/08/03 07:41:20;;;;;;;4.43;2.83;;;20.30;98.60;;;;;;5074500;28;20927;-68
2022/08/03 07:43:51;;;;;;;2.20;2.00;;;20.30;98.80;;;;;;5067702;28;20576;-68
2022/08/03 07:46:22;;;;;;;4.80;3.30;;;20.30;98.90;;;;;;5054781;28;20818;-68
2022/08/03 07:48:55;;;;;;;2.33;2.03;;;20.30;98.80;;;;;;5059360;28;20551;-68
2022/08/03 07:51:26;;;;;;;3.27;2.50;;;20.30;99.20;;;;;;5060551;28;20473;-68
2022/08/03 07:53:57;;;;;;;3.40;2.27;;;20.20;99.90;;;;;;5069781;28;20452;-68
2022/08/03 07:56:30;;;;;;;3.23;2.73;;;20.10;99.90;;;;;;5058113;28;20535;-69
2022/08/03 07:59:01;;;;;;;3.00;2.20;;;20.10;99.90;;;;;;5066806;28;20990;-68
2022/08/03 08:01:35;;;;;;;3.40;2.37;;;20.10;99.90;;;;;;5077012;28;20475;-68
2022/08/03 08:04:06;;;;;;;2.83;2.47;;;20.10;99.90;;;;;;5063182;28;20575;-68
2022/08/03 08:06:38;;;;;;;2.73;2.17;;;20.00;99.90;;;;;;5057108;28;20435;-68
2022/08/03 08:09:10;;;;;;;2.90;2.50;;;20.00;99.90;;;;;;5071133;28;20449;-68
2022/08/03 08:11:42;;;;;;;3.37;2.53;;;20.00;99.90;;;;;;5068706;28;20455;-68
2022/08/03 08:14:13;;;;;;;2.87;2.57;;;19.90;99.90;;;;;;5085713;28;20454;-68
2022/08/03 08:16:44;;;;;;;2.63;2.43;;;19.80;99.90;;;;;;5056138;28;20499;-68
2022/08/03 08:19:15;;;;;;;3.33;2.50;;;19.80;99.90;;;;;;5064905;28;20579;-68
2022/08/03 08:21:47;;;;;;;2.37;2.17;;;19.70;99.90;;;;;;5062849;28;20513;-68
2022/08/03 08:24:31;;;;;;;1.90;1.80;;;19.80;99.90;;;;;;5074650;28;21053;-68
2022/08/03 08:27:04;;;;;;;2.90;2.47;;;19.70;99.90;;;;;;5061289;28;20530;-68
2022/08/03 08:29:35;;;;;;;3.23;2.40;;;19.70;99.90;;;;;;5062626;28;20433;-68
2022/08/03 08:32:16;;;;;;;2.30;2.10;;;19.60;99.90;;;;;;5055554;28;20446;-67
2022/08/03 08:34:47;;;;;;;3.33;2.40;;;19.60;99.90;;;;;;5076493;28;20438;-68
2022/08/03 08:37:18;;;;;;;2.33;2.13;;;19.50;99.90;;;;;;5080261;28;20465;-68
2022/08/03 08:39:49;;;;;;;3.33;2.73;;;19.40;99.90;;;;;;5064924;28;20437;-68
2022/08/03 08:42:21;;;;;;;2.67;2.30;;;19.40;99.90;;;;;;5072916;28;20420;-68
2022/08/03 08:44:53;;;;;;;2.67;2.47;;;19.30;99.90;;;;;;5057143;28;20579;-68
2022/08/03 08:47:25;;;;;;;4.03;2.40;;;19.30;99.90;;;;;;5063011;28;20468;-68
2022/08/03 08:49:58;;;;;;;3.27;2.97;;;19.30;99.90;;;;;;5063361;28;20456;-68
2022/08/03 08:52:42;;;;;;;4.30;2.40;;;19.30;99.90;;;;;;5073214;28;20434;-68
2022/08/03 08:55:15;;;;;;;2.83;2.27;;;19.30;99.90;;;;;;5072623;28;20419;-68
2022/08/03 08:57:51;;;;;;;2.40;2.27;;;19.30;99.90;;;;;;5065355;28;20510;-68
2022/08/03 09:00:21;;;;;;;2.83;2.63;;;19.30;99.90;;;;;;5059698;28;20462;-69
2022/08/03 09:02:52;;;;;;;3.47;2.60;;;19.30;99.90;;;;;;5072228;28;20460;-68
2022/08/03 09:05:23;;;;;;;3.33;2.60;;;19.20;99.90;;;;;;5063291;28;20443;-68
2022/08/03 09:08:16;;;;;;;3.63;2.40;;;19.20;99.90;;;;;;5062604;28;20490;-68
2022/08/03 09:10:46;;;;;;;5.30;3.50;;;19.20;99.90;;;;;;5061191;28;20459;-68
2022/08/03 09:13:19;;;;;;;2.17;1.90;;;19.10;99.90;;;;;;5063435;28;20435;-68
2022/08/03 09:15:50;;;;;;;2.93;2.40;;;19.00;99.90;;;;;;5063900;28;20456;-68
2022/08/03 09:18:30;;;;;;;2.43;2.23;;;19.00;99.90;;;;;;5063621;28;20527;-67
2022/08/03 09:21:18;;;;;;;2.90;2.20;;;19.00;99.90;;;;;;5063271;28;20448;-68
2022/08/03 09:24:06;;;;;;;3.13;2.63;;;19.00;99.90;;;;;;5058765;28;20461;-68
2022/08/03 09:26:54;;;;;;;3.33;2.77;;;18.80;99.90;;;;;;5061223;28;20526;-67
2022/08/03 09:29:27;;;;;;;3.27;2.83;;;18.80;99.90;;;;;;5063878;28;20476;-67
2022/08/03 09:32:03;;;;;;;3.00;2.70;;;18.80;99.90;;;;;;5066589;28;20943;-68
2022/08/03 09:34:34;;;;;;;3.10;2.67;;;18.80;99.90;;;;;;5063241;28;20452;-67
2022/08/03 09:37:15;;;;;;;2.50;2.33;;;18.70;99.90;;;;;;5060075;28;20459;-68
2022/08/03 09:39:46;;;;;;;2.80;2.13;;;18.80;99.90;;;;;;5063922;28;20516;-67
2022/08/03 09:42:18;;;;;;;2.70;2.50;;;18.80;99.90;;;;;;5062671;28;20439;-67
2022/08/03 09:44:54;;;;;;;2.43;2.23;;;18.70;99.90;;;;;;5061336;28;20434;-68
2022/08/03 09:47:30;;;;;;;4.53;2.77;;;18.70;99.90;;;;;;5067367;28;20542;-68
2022/08/03 09:50:02;;;;;;;2.80;2.50;;;18.70;99.90;;;;;;5061798;28;21139;-68
2022/08/03 09:52:34;;;;;;;4.43;2.30;;;18.70;99.90;;;;;;5046565;28;20468;-69
2022/08/03 09:55:22;;;;;;;4.20;2.50;;;18.60;99.90;;;;;;5062682;28;20467;-68
2022/08/03 09:58:14;;;;;;;2.33;2.13;;;18.50;99.90;;;;;;5062123;28;20484;-68
2022/08/03 10:01:04;;;;;;;3.00;2.50;;;18.50;99.90;;;;;;5068567;28;20466;-68
2022/08/03 10:03:38;;;;;;;4.10;2.60;;;18.50;99.90;;;;;;5063610;28;20456;-68
2022/08/03 10:06:29;;;;;;;2.80;2.50;;;18.60;99.90;;;;;;5061101;28;20456;-67
2022/08/03 10:09:10;;;;;;;3.50;3.20;;;18.50;99.90;;;;;;5074299;28;20422;-68
2022/08/03 10:11:42;;;;;;;3.03;2.80;;;18.40;99.90;;;;;;5059921;28;20431;-68
2022/08/03 10:14:17;;;;;;;2.70;2.30;;;18.40;99.90;;;;;;5063178;28;20472;-68
2022/08/03 10:16:50;;;;;;;3.07;2.77;;;18.30;99.90;;;;;;5061801;28;20533;-68
2022/08/03 10:19:21;;;;;;;3.10;2.70;;;18.30;99.90;;;;;;5061173;28;20462;-68
2022/08/03 10:21:56;;;;;;;3.73;3.07;;;18.30;99.90;;;;;;5068857;28;20468;-68
2022/08/03 10:24:30;;;;;;;3.23;2.80;;;18.20;99.90;;;;;;5062374;28;20474;-68
2022/08/03 10:27:06;;;;;;;2.53;2.27;;;18.10;99.90;;;;;;5059185;28;20614;-68
2022/08/03 10:29:40;;;;;;;3.90;3.00;;;18.10;99.90;;;;;;5051609;28;20472;-68
2022/08/03 10:32:16;;;;;;;4.23;2.73;;;18.10;99.90;;;;;;5063022;28;20476;-68
2022/08/03 10:34:50;;;;;;;3.47;3.17;;;18.10;99.90;;;;;;5061674;28;20460;-68
2022/08/03 10:37:33;;;;;;;3.60;2.77;;;18.10;99.90;;;;;;5062073;28;20461;-68
2022/08/03 10:40:04;;;;;;;2.90;2.43;;;18.00;99.90;;;;;;5071530;28;20463;-68
2022/08/03 10:42:37;;;;;;;3.30;2.80;;;18.00;99.90;;;;;;5057782;28;20435;-67
2022/08/03 10:45:18;;;;;;;2.97;2.67;;;18.00;99.90;;;;;;5066175;28;20457;-67
2022/08/03 10:47:53;;;;;;;3.33;3.03;;;18.00;99.90;;;;;;5062236;28;20470;-67
2022/08/03 10:50:25;;;;;;;5.50;3.40;;;17.90;99.90;;;;;;5061493;28;20468;-68
2022/08/03 10:52:57;;;;;;;4.60;2.80;;;17.90;99.90;;;;;;5060334;28;20460;-67
2022/08/03 10:58:52;;;;;;;3.93;2.87;;;17.80;99.90;;;;;;5075359;28;20492;-68
2022/08/03 11:01:56;;;;;;;5.07;2.70;;;17.80;99.90;;;;;;5051198;28;20438;-68
2022/08/03 11:04:31;;;;;;;2.70;2.50;;;17.60;99.90;;;;;;5059988;28;20515;-67
2022/08/03 11:07:22;;;;;;;3.10;2.80;;;17.50;99.90;;;;;;5060053;28;20464;-67
2022/08/03 11:09:54;;;;;;;4.00;3.10;;;17.50;99.90;;;;;;5061805;28;20456;-68
2022/08/03 11:12:26;;;;;;;4.30;3.43;;;17.60;99.90;;;;;;5061216;28;20461;-68
2022/08/03 11:15:02;;;;;;;3.37;3.07;;;17.50;99.90;;;;;;5059991;28;20815;-68
2022/08/03 11:17:34;;;;;;;3.30;3.00;;;17.50;99.90;;;;;;5061224;28;20535;-68
2022/08/03 11:20:17;;;;;;;3.83;3.10;;;17.40;99.90;;;;;;5062095;28;20464;-68
2022/08/03 11:22:53;;;;;;;2.90;2.60;;;17.40;99.90;;;;;;5061244;28;20457;-68
2022/08/03 11:25:24;;;;;;;3.23;2.93;;;17.40;99.90;;;;;;5062951;28;20538;-67
2022/08/03 11:28:27;;;;;;;3.90;3.03;;;17.40;99.90;;;;;;5045594;28;20484;-68
2022/08/03 11:31:52;;;;;;;3.20;2.90;;;17.40;99.90;;;;;;5060799;28;20522;-68
2022/08/03 11:34:23;;;;;;;3.97;3.30;;;17.40;99.90;;;;;;4996486;28;20566;-68
2022/08/03 11:37:25;;;;;;;6.20;3.20;;;17.30;99.90;;;;;;5003451;28;20982;-68
2022/08/03 11:40:02;;;;;;;3.00;2.57;;;17.30;99.90;;;;;;5000566;28;20465;-67
2022/08/03 11:42:46;;;;;;;3.73;3.43;;;17.20;99.90;;;;;;5002950;28;20466;-67
2022/08/03 11:45:18;;;;;;;3.90;2.60;;;17.20;99.90;;;;;;4997963;28;20474;-67
2022/08/03 11:47:54;;;;;;;3.40;2.70;;;17.10;99.90;;;;;;4994702;28;20499;-68
2022/08/03 11:50:25;;;;;;;4.70;3.50;;;17.00;99.90;;;;;;5004866;28;20458;-67
2022/08/03 11:52:57;;;;;;;4.50;3.40;;;17.00;99.90;;;;;;4998285;28;20474;-67
2022/08/03 11:55:31;;;;;;;3.23;2.83;;;16.90;99.90;;;;;;5003852;28;20473;-67
2022/08/03 11:58:01;;;;;;;4.73;3.20;;;16.80;99.90;;;;;;4999272;28;20593;-68
2022/08/03 12:00:53;;;;;;;2.67;2.47;;;16.90;99.90;;;;;;4998203;28;20470;-67
2022/08/03 12:03:23;;;;;;;3.70;3.30;;;16.90;99.90;;;;;;4998974;28;20498;-67
2022/08/03 12:05:55;;;;;;;5.40;3.03;;;17.00;99.90;;;;;;5050412;28;20474;-67
2022/08/03 12:08:34;;;;;;;4.10;2.57;;;16.90;99.90;;;;;;5064076;28;20494;-68
2022/08/03 12:11:06;;;;;;;3.23;2.53;;;16.90;99.90;;;;;;5066123;28;20513;-68
2022/08/03 12:13:42;;;;;;;3.50;2.90;;;16.80;99.90;;;;;;5073073;28;20449;-67
2022/08/03 12:16:33;;;;;;;3.40;3.10;;;16.80;99.90;;;;;;5060149;28;20963;-67
2022/08/03 12:19:06;;;;;;;4.20;3.30;;;16.80;99.90;;;;;;5060438;28;20487;-67
2022/08/03 12:21:47;;;;;;;4.57;3.60;;;16.80;99.90;;;;;;5064530;28;20468;-68
2022/08/03 12:24:40;;;;;;;7.20;3.30;;;16.80;99.90;;;;;;5059674;28;20601;-68
2022/08/03 12:27:11;;;;;;;4.43;3.30;;;16.70;99.90;;;;;;5057083;28;20443;-67
2022/08/03 12:29:42;;;;;;;3.50;3.20;;;16.70;99.90;;;;;;5054488;28;20529;-68
2022/08/03 12:32:27;;;;;;;5.10;3.60;;;16.70;99.90;;;;;;5059838;28;20811;-68
2022/08/03 12:34:59;;;;;;;2.67;2.37;;;16.70;99.90;;;;;;5056219;28;20456;-67
2022/08/03 12:37:31;;;;;;;6.53;3.00;;;16.70;99.90;;;;;;5060657;28;20460;-66
2022/08/03 12:40:06;;;;;;;3.43;2.70;;;16.70;99.90;;;;;;5061813;28;20476;-67
2022/08/03 12:42:41;;;;;;;4.13;2.70;;;16.60;99.90;;;;;;5049656;28;20448;-67
2022/08/03 12:45:22;;;;;;;3.73;2.97;;;16.50;99.90;;;;;;5064197;28;20473;-66
2022/08/03 12:47:57;;;;;;;3.37;2.90;;;16.50;99.90;;;;;;5064241;28;20500;-66
2022/08/03 12:50:30;;;;;;;4.43;3.07;;;16.50;99.90;;;;;;5062624;28;20456;-66
2022/08/03 12:53:03;;;;;;;4.07;3.67;;;16.50;99.90;;;;;;5062915;28;20471;-67
2022/08/03 12:55:39;;;;;;;7.10;3.90;;;16.40;99.90;;;;;;5063937;28;20500;-67
2022/08/03 12:58:34;;;;;;;4.23;3.20;;;16.40;99.90;;;;;;5063336;28;20537;-66
2022/08/03 13:01:07;;;;;;;3.40;2.77;;;16.40;99.90;;;;;;5071195;28;21013;-66
2022/08/03 13:03:43;;;;;;;5.63;3.40;;;16.40;99.90;;;;;;5063663;28;20464;-66
2022/08/03 13:06:19;;;;;;;5.73;3.67;;;16.40;99.90;;;;;;5063998;28;20456;-68
2022/08/03 13:08:51;;;;;;;3.67;3.27;;;16.30;99.90;;;;;;5064698;28;20503;-67
2022/08/03 13:11:25;;;;;;;5.60;3.33;;;16.30;99.90;;;;;;5064441;28;20476;-66
2022/08/03 13:14:16;;;;;;;4.23;3.57;;;16.30;99.90;;;;;;5063466;28;20506;-68
2022/08/03 13:16:49;;;;;;;4.80;3.23;;;16.30;99.90;;;;;;5063293;28;20464;-68
2022/08/03 13:19:20;;;;;;;4.17;3.73;;;16.30;99.90;;;;;;5057642;28;20444;-67
2022/08/03 13:21:51;;;;;;;3.10;2.80;;;16.30;99.90;;;;;;5076917;28;20437;-66
2022/08/03 13:24:34;;;;;;;3.73;3.27;;;16.30;99.90;;;;;;5074656;28;20444;-66
2022/08/03 13:27:06;;;;;;;5.50;4.03;;;16.40;99.90;;;;;;5070460;28;20448;-66
2022/08/03 13:29:57;;;;;;;6.27;4.03;;;16.40;99.90;;;;;;5065293;28;21023;-67
2022/08/03 13:32:28;;;;;;;4.83;3.77;;;16.40;99.90;;;;;;5064175;28;20793;-67
2022/08/03 13:34:59;;;;;;;6.27;3.90;;;16.50;99.90;;;;;;5061269;28;20453;-67
2022/08/03 13:37:31;;;;;;;5.10;3.77;;;16.40;99.90;;;;;;5071527;28;20452;-67
2022/08/03 13:40:02;;;;;;;5.10;3.93;;;16.40;99.90;;;;;;5065489;28;20536;-68
2022/08/03 13:42:36;;;;;;;5.00;3.90;;;16.40;99.90;;;;;;5064908;28;20779;-67